createdAt,value
2023-05-10T00:00:40.620Z,58.76
2023-05-10T00:01:40.626Z,58.91
2023-05-10T00:02:40.658Z,59.02
2023-05-10T00:03:40.624Z,60.49
2023-05-10T00:04:40.510Z,58.89
2023-05-10T00:05:40.470Z,55.95
2023-05-10T00:06:40.473Z,61.05
2023-05-10T00:07:40.403Z,56.88
2023-05-10T00:08:40.395Z,57.81
2023-05-10T00:09:40.362Z,56.79
2023-05-10T00:10:40.337Z,57.12
2023-05-10T00:11:40.298Z,57.05
2023-05-10T00:12:40.274Z,57.84
2023-05-10T00:13:40.273Z,57.10
2023-05-10T00:14:40.210Z,58.75
2023-05-10T00:15:40.180Z,57.15
2023-05-10T00:16:40.171Z,56.73
2023-05-10T00:17:40.205Z,57.99
2023-05-10T00:18:40.175Z,57.37
2023-05-10T00:19:40.080Z,58.01
2023-05-10T00:20:40.062Z,58.37
2023-05-10T00:21:40.023Z,56.23
2023-05-10T00:22:39.997Z,57.47
2023-05-10T00:23:39.973Z,58.95
2023-05-10T00:24:39.942Z,57.51
2023-05-10T00:25:39.904Z,55.56
2023-05-10T00:26:40.487Z,56.06
2023-05-10T00:27:39.849Z,55.56
2023-05-10T00:28:39.832Z,55.97
2023-05-10T00:29:39.793Z,54.76
2023-05-10T00:30:39.786Z,55.93
2023-05-10T00:31:39.804Z,57.18
2023-05-10T00:32:39.767Z,56.12
2023-05-10T00:33:39.685Z,56.86
2023-05-10T00:34:39.653Z,56.01
2023-05-10T00:35:39.637Z,58.92
2023-05-10T00:36:39.622Z,58.30
2023-05-10T00:37:39.593Z,57.87
2023-05-10T00:38:39.575Z,57.55
2023-05-10T00:39:39.573Z,58.08
2023-05-10T00:40:39.529Z,56.37
2023-05-10T00:41:39.505Z,56.13
2023-05-10T00:42:39.493Z,57.41
2023-05-10T00:43:39.494Z,57.47
2023-05-10T00:44:39.434Z,53.80
2023-05-10T00:45:39.420Z,52.37
2023-05-10T00:46:39.379Z,53.01
2023-05-10T00:47:39.407Z,55.20
2023-05-10T00:48:39.322Z,52.94
2023-05-10T00:49:39.306Z,53.48
2023-05-10T00:50:39.309Z,53.93
2023-05-10T00:51:39.276Z,53.45
2023-05-10T00:52:39.237Z,53.38
2023-05-10T00:53:39.202Z,50.79
2023-05-10T00:54:39.198Z,54.74
2023-05-10T00:55:39.147Z,56.34
2023-05-10T00:56:39.135Z,54.49
2023-05-10T00:57:39.106Z,53.93
2023-05-10T00:58:39.073Z,56.47
2023-05-10T00:59:39.035Z,51.22
2023-05-10T01:00:39.045Z,51.52
2023-05-10T01:01:39.008Z,53.30
2023-05-10T01:02:39.057Z,56.04
2023-05-10T01:03:39.018Z,53.66
2023-05-10T01:04:38.954Z,57.13
2023-05-10T01:05:38.885Z,53.56
2023-05-10T01:06:38.846Z,52.47
2023-05-10T01:07:38.876Z,53.04
2023-05-10T01:08:38.819Z,51.88
2023-05-10T01:09:38.842Z,52.56
2023-05-10T01:10:38.743Z,56.13
2023-05-10T01:11:38.725Z,54.08
2023-05-10T01:12:38.789Z,54.16
2023-05-10T01:13:39.014Z,54.64
2023-05-10T01:14:38.648Z,54.43
2023-05-10T01:15:38.687Z,52.90
2023-05-10T01:16:38.585Z,48.92
2023-05-10T01:17:38.611Z,51.76
2023-05-10T01:18:38.525Z,50.78
2023-05-10T01:19:38.500Z,46.68
2023-05-10T01:20:38.489Z,46.11
2023-05-10T01:21:38.459Z,47.88
2023-05-10T01:22:38.421Z,51.50
2023-05-10T01:23:38.518Z,48.31
2023-05-10T01:24:38.374Z,49.96
2023-05-10T01:25:38.359Z,49.90
2023-05-10T01:26:38.365Z,47.28
2023-05-10T01:27:38.327Z,49.24
2023-05-10T01:28:38.309Z,49.57
2023-05-10T01:29:38.272Z,45.63
2023-05-10T01:30:38.253Z,46.13
2023-05-10T01:31:38.221Z,47.52
2023-05-10T01:32:38.225Z,49.26
2023-05-10T01:33:38.184Z,50.65
2023-05-10T01:34:38.143Z,49.52
2023-05-10T01:35:38.137Z,50.19
2023-05-10T01:36:38.106Z,49.73
2023-05-10T01:37:38.174Z,50.64
2023-05-10T01:38:38.062Z,49.09
2023-05-10T01:39:38.044Z,49.35
2023-05-10T01:40:38.009Z,48.37
2023-05-10T01:41:38.007Z,49.83
2023-05-10T01:42:37.972Z,47.53
2023-05-10T01:43:37.948Z,45.22
2023-05-10T01:44:37.918Z,46.56
2023-05-10T01:45:37.905Z,49.48
2023-05-10T01:46:37.969Z,48.15
2023-05-10T01:47:37.851Z,48.87
2023-05-10T01:48:37.842Z,50.09
2023-05-10T01:49:37.821Z,46.34
2023-05-10T01:50:37.791Z,45.69
2023-05-10T01:51:37.747Z,48.77
2023-05-10T01:52:37.732Z,50.10
2023-05-10T01:53:37.696Z,46.82
2023-05-10T01:54:37.680Z,45.25
2023-05-10T01:55:37.652Z,47.58
2023-05-10T01:56:37.617Z,44.38
2023-05-10T01:57:37.596Z,44.37
2023-05-10T01:58:37.560Z,43.23
2023-05-10T01:59:37.565Z,43.92
2023-05-10T02:00:37.579Z,44.82
2023-05-10T02:01:37.488Z,47.33
2023-05-10T02:02:37.457Z,46.46
2023-05-10T02:03:37.462Z,46.60
2023-05-10T02:04:37.436Z,44.92
2023-05-10T02:05:37.394Z,45.30
2023-05-10T02:06:37.394Z,44.68
2023-05-10T02:07:37.353Z,44.84
2023-05-10T02:08:37.329Z,47.08
2023-05-10T02:09:37.295Z,46.57
2023-05-10T02:10:37.274Z,42.31
2023-05-10T02:11:37.252Z,43.98
2023-05-10T02:12:37.239Z,46.65
2023-05-10T02:13:37.243Z,44.52
2023-05-10T02:14:37.248Z,42.89
2023-05-10T02:15:37.172Z,41.94
2023-05-10T02:16:37.190Z,44.70
2023-05-10T02:17:37.185Z,45.15
2023-05-10T02:18:37.104Z,45.84
2023-05-10T02:19:37.074Z,46.66
2023-05-10T02:20:37.052Z,47.77
2023-05-10T02:21:37.014Z,43.28
2023-05-10T02:22:36.996Z,45.12
2023-05-10T02:23:36.976Z,41.06
2023-05-10T02:24:36.950Z,44.96
2023-05-10T02:25:36.940Z,43.37
2023-05-10T02:26:36.932Z,44.96
2023-05-10T02:27:36.922Z,39.99
2023-05-10T02:28:36.919Z,43.96
2023-05-10T02:29:36.903Z,41.81
2023-05-10T02:30:36.883Z,40.77
2023-05-10T02:31:36.905Z,43.64
2023-05-10T02:32:36.884Z,40.13
2023-05-10T02:33:36.860Z,39.42
2023-05-10T02:34:36.850Z,41.37
2023-05-10T02:35:36.836Z,40.25
2023-05-10T02:36:36.847Z,45.09
2023-05-10T02:37:36.828Z,38.72
2023-05-10T02:38:36.811Z,41.61
2023-05-10T02:39:36.802Z,42.60
2023-05-10T02:40:36.803Z,42.17
2023-05-10T02:41:36.800Z,40.62
2023-05-10T02:42:36.797Z,40.13
2023-05-10T02:43:36.786Z,41.00
2023-05-10T02:44:36.821Z,39.02
2023-05-10T02:45:36.810Z,41.74
2023-05-10T02:46:36.855Z,39.28
2023-05-10T02:47:36.827Z,43.92
2023-05-10T02:48:36.803Z,39.11
2023-05-10T02:49:36.788Z,40.91
2023-05-10T02:50:36.779Z,39.89
2023-05-10T02:51:36.776Z,41.30
2023-05-10T02:52:36.779Z,38.33
2023-05-10T02:53:36.786Z,36.63
2023-05-10T02:54:36.777Z,37.90
2023-05-10T02:55:36.765Z,39.48
2023-05-10T02:56:36.765Z,42.15
2023-05-10T02:57:36.753Z,37.05
2023-05-10T02:58:36.743Z,36.07
2023-05-10T02:59:36.727Z,38.46
2023-05-10T03:00:36.724Z,40.07
2023-05-10T03:01:36.765Z,42.22
2023-05-10T03:02:36.765Z,37.39
2023-05-10T03:03:36.730Z,40.29
2023-05-10T03:04:36.744Z,40.09
2023-05-10T03:05:36.710Z,37.25
2023-05-10T03:06:36.715Z,40.86
2023-05-10T03:07:36.713Z,41.26
2023-05-10T03:08:36.713Z,41.24
2023-05-10T03:09:36.728Z,39.76
2023-05-10T03:10:36.700Z,40.27
2023-05-10T03:11:36.742Z,37.18
2023-05-10T03:12:36.706Z,38.52
2023-05-10T03:13:36.718Z,40.97
2023-05-10T03:14:36.716Z,39.23
2023-05-10T03:15:36.715Z,36.89
2023-05-10T03:16:36.705Z,38.28
2023-05-10T03:17:36.747Z,39.71
2023-05-10T03:18:36.711Z,39.57
2023-05-10T03:19:36.713Z,38.85
2023-05-10T03:20:36.710Z,39.52
2023-05-10T03:21:36.713Z,35.93
2023-05-10T03:22:36.710Z,35.71
2023-05-10T03:23:36.714Z,39.99
2023-05-10T03:24:36.701Z,38.19
2023-05-10T03:25:36.696Z,36.69
2023-05-10T03:26:36.702Z,35.32
2023-05-10T03:27:36.796Z,38.33
2023-05-10T03:28:36.757Z,34.70
2023-05-10T03:29:36.691Z,37.15
2023-05-10T03:30:36.700Z,38.24
2023-05-10T03:31:36.736Z,37.45
2023-05-10T03:32:36.715Z,38.49
2023-05-10T03:33:36.714Z,35.04
2023-05-10T03:34:36.722Z,35.89
2023-05-10T03:35:36.706Z,35.60
2023-05-10T03:36:36.709Z,35.33
2023-05-10T03:37:36.712Z,34.00
2023-05-10T03:38:36.731Z,36.99
2023-05-10T03:39:36.719Z,35.87
2023-05-10T03:40:36.740Z,34.55
2023-05-10T03:41:36.717Z,36.72
2023-05-10T03:42:36.740Z,38.32
2023-05-10T03:43:36.776Z,35.47
2023-05-10T03:44:36.734Z,34.71
2023-05-10T03:45:36.746Z,32.31
2023-05-10T03:46:36.762Z,34.04
2023-05-10T03:47:36.797Z,33.31
2023-05-10T03:48:36.759Z,32.29
2023-05-10T03:49:36.765Z,33.10
2023-05-10T03:50:36.778Z,32.42
2023-05-10T03:51:36.762Z,33.35
2023-05-10T03:52:36.772Z,32.89
2023-05-10T03:53:36.769Z,33.48
2023-05-10T03:54:36.788Z,33.93
2023-05-10T03:55:36.774Z,34.06
2023-05-10T03:56:36.789Z,33.01
2023-05-10T03:57:36.786Z,33.91
2023-05-10T03:58:36.796Z,32.20
2023-05-10T03:59:36.812Z,32.45
2023-05-10T04:00:36.817Z,32.23
2023-05-10T04:01:36.849Z,33.91
2023-05-10T04:02:36.937Z,31.78
2023-05-10T04:03:36.894Z,27.31
2023-05-10T04:04:36.831Z,31.95
2023-05-10T04:05:36.833Z,30.33
2023-05-10T04:06:36.904Z,30.18
2023-05-10T04:07:36.853Z,29.50
2023-05-10T04:08:36.838Z,30.91
2023-05-10T04:09:36.851Z,30.42
2023-05-10T04:10:36.853Z,28.34
2023-05-10T04:11:36.866Z,31.85
2023-05-10T04:12:36.868Z,28.51
2023-05-10T04:13:36.864Z,30.75
2023-05-10T04:14:36.869Z,30.07
2023-05-10T04:15:36.892Z,27.09
2023-05-10T04:16:36.929Z,30.15
2023-05-10T04:17:36.931Z,30.98
2023-05-10T04:18:36.898Z,26.66
2023-05-10T04:19:36.904Z,30.90
2023-05-10T04:20:36.936Z,27.41
2023-05-10T04:21:36.922Z,29.23
2023-05-10T04:22:36.935Z,26.14
2023-05-10T04:23:36.982Z,31.01
2023-05-10T04:24:36.944Z,28.12
2023-05-10T04:25:36.954Z,29.90
2023-05-10T04:26:36.984Z,26.79
2023-05-10T04:27:36.994Z,27.74
2023-05-10T04:28:36.983Z,27.13
2023-05-10T04:29:36.987Z,27.93
2023-05-10T04:30:37.038Z,28.49
2023-05-10T04:31:37.003Z,28.77
2023-05-10T04:32:37.092Z,27.41
2023-05-10T04:33:37.026Z,27.47
2023-05-10T04:34:37.064Z,28.28
2023-05-10T04:35:37.058Z,27.20
2023-05-10T04:36:37.069Z,26.29
2023-05-10T04:37:37.080Z,28.05
2023-05-10T04:38:37.091Z,25.71
2023-05-10T04:39:37.110Z,30.01
2023-05-10T04:40:37.116Z,25.25
2023-05-10T04:41:37.133Z,27.68
2023-05-10T04:42:37.143Z,27.55
2023-05-10T04:43:37.258Z,29.33
2023-05-10T04:44:37.198Z,28.06
2023-05-10T04:45:37.166Z,30.50
2023-05-10T04:46:37.297Z,29.08
2023-05-10T04:47:37.253Z,31.89
2023-05-10T04:48:37.214Z,29.80
2023-05-10T04:49:37.231Z,28.56
2023-05-10T04:50:37.225Z,29.81
2023-05-10T04:51:37.333Z,25.00
2023-05-10T04:52:37.256Z,30.44
2023-05-10T04:53:38.066Z,32.05
2023-05-10T04:54:37.274Z,29.45
2023-05-10T04:55:37.280Z,29.56
2023-05-10T04:56:37.275Z,28.17
2023-05-10T04:57:37.295Z,26.99
2023-05-10T04:58:37.299Z,28.49
2023-05-10T04:59:37.331Z,27.24
2023-05-10T05:00:37.324Z,28.97
2023-05-10T05:01:37.384Z,28.05
2023-05-10T05:02:37.467Z,25.11
2023-05-10T05:03:37.392Z,27.93
2023-05-10T05:04:37.358Z,26.85
2023-05-10T05:05:37.401Z,27.20
2023-05-10T05:06:37.391Z,29.07
2023-05-10T05:07:37.462Z,28.24
2023-05-10T05:08:37.398Z,28.29
2023-05-10T05:09:37.402Z,28.79
2023-05-10T05:10:37.408Z,26.79
2023-05-10T05:11:37.408Z,26.28
2023-05-10T05:12:37.420Z,26.15
2023-05-10T05:13:37.429Z,28.69
2023-05-10T05:14:37.464Z,28.47
2023-05-10T05:15:37.452Z,27.39
2023-05-10T05:16:37.607Z,27.80
2023-05-10T05:17:37.498Z,28.25
2023-05-10T05:18:37.470Z,28.19
2023-05-10T05:19:37.480Z,31.81
2023-05-10T05:20:37.490Z,30.44
2023-05-10T05:21:37.495Z,34.79
2023-05-10T05:22:37.576Z,34.06
2023-05-10T05:23:37.503Z,37.89
2023-05-10T05:24:37.528Z,40.31
2023-05-10T05:25:37.539Z,33.94
2023-05-10T05:26:38.505Z,40.33
2023-05-10T05:27:37.614Z,41.25
2023-05-10T05:28:37.546Z,66.11
2023-05-10T05:29:38.512Z,65.76
2023-05-10T05:30:37.507Z,64.65
2023-05-10T05:31:39.082Z,66.43
2023-05-10T05:32:37.457Z,58.44
2023-05-10T05:33:37.404Z,62.54
2023-05-10T05:34:37.396Z,63.69
2023-05-10T05:35:37.371Z,63.07
2023-05-10T05:36:37.711Z,70.94
2023-05-10T05:37:37.306Z,76.12
2023-05-10T05:38:37.284Z,87.27
2023-05-10T05:39:37.297Z,89.48
2023-05-10T05:40:37.388Z,96.53
2023-05-10T05:41:37.213Z,102.88
2023-05-10T05:42:37.172Z,108.10
2023-05-10T05:43:38.328Z,120.44
2023-05-10T05:44:37.181Z,126.61
2023-05-10T05:45:37.269Z,131.07
2023-05-10T05:46:37.249Z,142.28
2023-05-10T05:47:37.393Z,150.00
2023-05-10T05:48:37.332Z,152.04
2023-05-10T05:49:37.366Z,158.81
2023-05-10T05:50:37.371Z,165.09
2023-05-10T05:51:37.391Z,172.18
2023-05-10T05:52:37.419Z,175.96
2023-05-10T05:53:37.434Z,180.19
2023-05-10T05:54:39.059Z,187.63
2023-05-10T05:55:37.462Z,193.69
2023-05-10T05:56:37.460Z,203.23
2023-05-10T05:57:37.487Z,209.98
2023-05-10T05:58:37.489Z,216.07
2023-05-10T05:59:37.486Z,222.90
2023-05-10T06:00:37.529Z,230.80
2023-05-10T06:01:37.484Z,240.88
2023-05-10T06:02:37.630Z,244.90
2023-05-10T06:03:37.561Z,249.93
2023-05-10T06:04:37.532Z,249.90
2023-05-10T06:05:37.629Z,250.00
2023-05-10T06:06:37.479Z,250.00
2023-05-10T06:07:37.492Z,249.33
2023-05-10T06:08:37.467Z,250.00
2023-05-10T06:09:37.467Z,250.00
2023-05-10T06:10:37.451Z,250.00
2023-05-10T06:11:37.490Z,248.53
2023-05-10T06:12:37.419Z,250.00
2023-05-10T06:13:37.403Z,250.00
2023-05-10T06:14:37.377Z,249.82
2023-05-10T06:15:37.382Z,250.00
2023-05-10T06:16:37.390Z,249.89
2023-05-10T06:17:37.341Z,250.00
2023-05-10T06:18:37.297Z,250.00
2023-05-10T06:19:37.269Z,248.12
2023-05-10T06:20:37.276Z,249.46
2023-05-10T06:21:37.234Z,250.00
2023-05-10T06:22:37.199Z,249.34
2023-05-10T06:23:37.159Z,249.53
2023-05-10T06:24:37.170Z,248.22
2023-05-10T06:25:37.162Z,247.54
2023-05-10T06:26:37.609Z,249.48
2023-05-10T06:27:37.160Z,239.79
2023-05-10T06:28:37.158Z,179.37
2023-05-10T06:29:37.050Z,138.55
2023-05-10T06:30:37.068Z,90.12
2023-05-10T06:31:37.133Z,45.40
2023-05-10T06:32:37.092Z,25.00
2023-05-10T06:33:37.072Z,23.27
2023-05-10T06:34:37.049Z,25.00
2023-05-10T06:35:37.047Z,22.97
2023-05-10T06:36:37.041Z,26.32
2023-05-10T06:37:37.032Z,21.98
2023-05-10T06:38:37.058Z,25.00
2023-05-10T06:39:37.051Z,25.19
2023-05-10T06:40:37.609Z,29.62
2023-05-10T06:41:37.062Z,24.74
2023-05-10T06:42:37.069Z,21.52
2023-05-10T06:43:37.039Z,24.99
2023-05-10T06:44:37.034Z,26.34
2023-05-10T06:45:37.034Z,27.82
2023-05-10T06:46:37.079Z,25.00
2023-05-10T06:47:38.794Z,26.10
2023-05-10T06:48:37.049Z,25.44
2023-05-10T06:49:38.035Z,25.70
2023-05-10T06:50:36.999Z,26.93
2023-05-10T06:51:36.963Z,31.28
2023-05-10T06:52:36.938Z,38.38
2023-05-10T06:53:36.941Z,50.42
2023-05-10T06:54:36.916Z,53.45
2023-05-10T06:55:36.886Z,58.21
2023-05-10T06:56:36.839Z,60.16
2023-05-10T06:57:36.813Z,62.15
2023-05-10T06:58:36.838Z,63.41
2023-05-10T06:59:36.850Z,64.21
2023-05-10T07:00:36.816Z,64.94
2023-05-10T07:01:36.828Z,67.16
2023-05-10T07:02:36.895Z,71.40
2023-05-10T07:03:36.856Z,70.97
2023-05-10T07:04:36.940Z,75.38
2023-05-10T07:05:36.982Z,78.10
2023-05-10T07:06:36.950Z,76.68
2023-05-10T07:07:36.955Z,74.44
2023-05-10T07:08:36.975Z,73.13
2023-05-10T07:09:36.996Z,72.58
2023-05-10T07:10:37.029Z,71.75
2023-05-10T07:11:37.025Z,69.74
2023-05-10T07:12:37.090Z,68.11
2023-05-10T07:13:37.037Z,68.01
2023-05-10T07:14:37.052Z,68.38
2023-05-10T07:15:37.062Z,72.16
2023-05-10T07:16:37.102Z,75.14
2023-05-10T07:17:37.155Z,76.43
2023-05-10T07:18:37.111Z,77.51
2023-05-10T07:19:37.117Z,74.09
2023-05-10T07:20:37.105Z,74.10
2023-05-10T07:21:37.210Z,73.48
2023-05-10T07:22:37.213Z,75.67
2023-05-10T07:23:37.188Z,75.92
2023-05-10T07:24:37.190Z,77.36
2023-05-10T07:25:37.218Z,79.33
2023-05-10T07:26:37.266Z,79.22
2023-05-10T07:27:37.285Z,80.61
2023-05-10T07:28:37.303Z,81.90
2023-05-10T07:29:37.362Z,84.24
2023-05-10T07:30:37.387Z,82.50
2023-05-10T07:31:37.429Z,82.62
2023-05-10T07:32:37.511Z,84.49
2023-05-10T07:33:37.478Z,86.84
2023-05-10T07:34:37.517Z,87.93
2023-05-10T07:35:37.559Z,88.99
2023-05-10T07:36:37.597Z,88.40
2023-05-10T07:37:37.632Z,90.17
2023-05-10T07:38:40.243Z,89.49
2023-05-10T07:39:37.643Z,90.70
2023-05-10T07:40:37.623Z,91.44
2023-05-10T07:41:37.596Z,91.25
2023-05-10T07:42:37.616Z,92.57
2023-05-10T07:43:37.538Z,92.35
2023-05-10T07:44:37.519Z,92.84
2023-05-10T07:45:37.505Z,92.34
2023-05-10T07:46:37.523Z,93.86
2023-05-10T07:47:37.485Z,94.01
2023-05-10T07:48:37.412Z,92.51
2023-05-10T07:49:37.392Z,93.95
2023-05-10T07:50:37.347Z,93.83
2023-05-10T07:51:37.319Z,94.03
2023-05-10T07:52:37.290Z,94.32
2023-05-10T07:53:37.261Z,94.31
2023-05-10T07:54:37.242Z,94.97
2023-05-10T07:55:37.211Z,94.45
2023-05-10T07:56:37.199Z,94.67
2023-05-10T07:57:37.141Z,94.59
2023-05-10T07:58:37.114Z,94.43
2023-05-10T07:59:37.102Z,94.73
2023-05-10T08:00:37.064Z,97.25
2023-05-10T08:01:37.051Z,95.61
2023-05-10T08:02:37.155Z,95.45
2023-05-10T08:03:37.134Z,96.02
2023-05-10T08:04:36.999Z,94.94
2023-05-10T08:05:36.923Z,96.65
2023-05-10T08:06:36.907Z,96.50
2023-05-10T08:07:36.871Z,97.09
2023-05-10T08:08:36.846Z,96.79
2023-05-10T08:09:36.823Z,97.08
2023-05-10T08:10:36.796Z,96.04
2023-05-10T08:11:37.707Z,97.16
2023-05-10T08:12:36.739Z,96.32
2023-05-10T08:13:36.715Z,96.02
2023-05-10T08:14:36.686Z,95.56
2023-05-10T08:15:36.688Z,95.34
2023-05-10T08:16:36.632Z,95.68
2023-05-10T08:17:36.624Z,94.84
2023-05-10T08:18:36.606Z,96.86
2023-05-10T08:19:36.557Z,94.94
2023-05-10T08:20:36.554Z,95.77
2023-05-10T08:21:36.583Z,94.11
2023-05-10T08:22:36.599Z,94.92
2023-05-10T08:23:36.612Z,95.54
2023-05-10T08:24:36.608Z,95.16
2023-05-10T08:25:36.627Z,96.57
2023-05-10T08:26:36.611Z,95.04
2023-05-10T08:27:36.616Z,94.16
2023-05-10T08:28:36.656Z,95.53
2023-05-10T08:29:48.921Z,93.69
2023-05-10T08:30:37.635Z,93.83
2023-05-10T08:31:36.647Z,93.98
2023-05-10T08:32:36.614Z,94.67
2023-05-10T08:33:36.552Z,94.65
2023-05-10T08:34:36.534Z,94.90
2023-05-10T08:35:36.511Z,95.91
2023-05-10T08:36:36.480Z,94.75
2023-05-10T08:37:36.450Z,95.27
2023-05-10T08:38:36.459Z,94.39
2023-05-10T08:39:36.429Z,95.20
2023-05-10T08:40:36.658Z,94.86
2023-05-10T08:41:38.175Z,93.52
2023-05-10T08:42:36.531Z,94.46
2023-05-10T08:43:36.557Z,94.53
2023-05-10T08:44:36.572Z,93.55
2023-05-10T08:45:36.588Z,94.50
2023-05-10T08:46:36.651Z,93.82
2023-05-10T08:47:36.677Z,94.49
2023-05-10T08:48:36.644Z,93.44
2023-05-10T08:49:36.643Z,93.53
2023-05-10T08:50:36.682Z,94.31
2023-05-10T08:51:36.757Z,93.11
2023-05-10T08:52:36.720Z,93.69
2023-05-10T08:53:36.748Z,93.62
2023-05-10T08:54:36.797Z,93.89
2023-05-10T08:55:36.828Z,93.04
2023-05-10T08:56:36.817Z,93.03
2023-05-10T08:57:36.857Z,92.50
2023-05-10T08:58:37.774Z,92.62
2023-05-10T08:59:36.825Z,92.76
2023-05-10T09:00:36.872Z,93.08
2023-05-10T09:01:36.795Z,93.65
2023-05-10T09:02:36.767Z,94.25
2023-05-10T09:03:36.764Z,92.56
2023-05-10T09:04:36.839Z,94.10
2023-05-10T09:05:36.703Z,93.24
2023-05-10T09:06:36.677Z,92.71
2023-05-10T09:07:36.751Z,91.19
2023-05-10T09:08:36.611Z,92.71
2023-05-10T09:09:36.588Z,94.09
2023-05-10T09:10:36.581Z,94.25
2023-05-10T09:11:36.594Z,92.93
2023-05-10T09:12:36.571Z,94.12
2023-05-10T09:13:36.563Z,92.44
2023-05-10T09:14:36.564Z,94.05
2023-05-10T09:15:36.562Z,92.68
2023-05-10T09:16:36.590Z,93.59
2023-05-10T09:17:36.597Z,93.06
2023-05-10T09:18:36.577Z,92.81
2023-05-10T09:19:36.559Z,92.05
2023-05-10T09:20:36.515Z,92.19
2023-05-10T09:21:36.478Z,92.56
2023-05-10T09:22:36.449Z,92.55
2023-05-10T09:23:36.443Z,93.81
2023-05-10T09:24:36.401Z,93.53
2023-05-10T09:25:36.427Z,92.53
2023-05-10T09:26:36.353Z,92.64
2023-05-10T09:27:36.323Z,92.96
2023-05-10T09:28:36.290Z,93.44
2023-05-10T09:29:36.281Z,93.60
2023-05-10T09:30:36.296Z,93.69
2023-05-10T09:31:36.265Z,94.26
2023-05-10T09:32:36.223Z,91.03
2023-05-10T09:33:36.157Z,93.88
2023-05-10T09:34:36.133Z,93.31
2023-05-10T09:35:36.105Z,92.96
2023-05-10T09:36:36.078Z,93.86
2023-05-10T09:37:36.049Z,94.76
2023-05-10T09:38:36.008Z,92.25
2023-05-10T09:39:35.997Z,94.62
2023-05-10T09:40:35.959Z,93.78
2023-05-10T09:41:35.927Z,93.87
2023-05-10T09:42:35.907Z,92.79
2023-05-10T09:43:35.881Z,92.45
2023-05-10T09:44:35.880Z,93.95
2023-05-10T09:45:38.305Z,94.13
2023-05-10T09:46:35.835Z,93.85
2023-05-10T09:47:35.827Z,93.74
2023-05-10T09:48:35.755Z,92.72
2023-05-10T09:49:35.747Z,93.21
2023-05-10T09:50:35.715Z,93.01
2023-05-10T09:51:36.785Z,92.96
2023-05-10T09:52:35.664Z,93.86
2023-05-10T09:53:35.641Z,92.58
2023-05-10T09:54:35.647Z,92.77
2023-05-10T09:55:35.597Z,91.87
2023-05-10T09:56:35.582Z,92.36
2023-05-10T09:57:35.545Z,92.35
2023-05-10T09:58:35.525Z,92.26
2023-05-10T09:59:35.496Z,92.01
2023-05-10T10:00:35.477Z,92.30
2023-05-10T10:01:35.492Z,90.96
2023-05-10T10:02:35.476Z,91.82
2023-05-10T10:03:35.411Z,91.62
2023-05-10T10:04:35.425Z,92.74
2023-05-10T10:05:35.395Z,92.78
2023-05-10T10:06:35.363Z,91.46
2023-05-10T10:07:35.389Z,91.27
2023-05-10T10:08:35.306Z,91.11
2023-05-10T10:09:35.276Z,91.63
2023-05-10T10:10:35.249Z,91.28
2023-05-10T10:11:35.230Z,91.22
2023-05-10T10:12:35.202Z,92.36
2023-05-10T10:13:35.171Z,92.31
2023-05-10T10:14:35.140Z,91.70
2023-05-10T10:15:35.162Z,93.93
2023-05-10T10:16:35.117Z,91.87
2023-05-10T10:17:35.103Z,92.68
2023-05-10T10:18:35.080Z,91.17
2023-05-10T10:19:35.029Z,90.88
2023-05-10T10:20:34.985Z,89.63
2023-05-10T10:21:34.955Z,90.73
2023-05-10T10:22:34.934Z,91.69
2023-05-10T10:23:34.935Z,91.54
2023-05-10T10:24:34.982Z,91.63
2023-05-10T10:25:34.879Z,92.21
2023-05-10T10:26:34.848Z,91.69
2023-05-10T10:27:34.829Z,90.52
2023-05-10T10:28:34.794Z,90.79
2023-05-10T10:29:34.760Z,92.19
2023-05-10T10:30:34.757Z,91.62
2023-05-10T10:31:34.791Z,91.20
2023-05-10T10:32:34.735Z,90.50
2023-05-10T10:33:34.775Z,90.94
2023-05-10T10:34:34.659Z,89.91
2023-05-10T10:35:34.610Z,90.74
2023-05-10T10:36:34.576Z,90.60
2023-05-10T10:37:34.567Z,90.37
2023-05-10T10:38:34.526Z,91.33
2023-05-10T10:39:34.525Z,89.76
2023-05-10T10:40:35.100Z,89.24
2023-05-10T10:41:34.457Z,90.28
2023-05-10T10:42:34.501Z,89.70
2023-05-10T10:43:34.386Z,90.96
2023-05-10T10:44:34.394Z,91.00
2023-05-10T10:45:35.333Z,91.12
2023-05-10T10:46:34.364Z,91.31
2023-05-10T10:47:34.432Z,91.39
2023-05-10T10:48:34.266Z,91.50
2023-05-10T10:49:34.255Z,90.40
2023-05-10T10:50:34.235Z,91.57
2023-05-10T10:51:34.171Z,90.53
2023-05-10T10:52:34.289Z,90.33
2023-05-10T10:53:34.151Z,90.93
2023-05-10T10:54:34.082Z,90.14
2023-05-10T10:55:34.082Z,89.91
2023-05-10T10:56:35.161Z,90.29
2023-05-10T10:57:33.989Z,90.68
2023-05-10T10:58:34.006Z,89.55
2023-05-10T10:59:33.969Z,88.90
2023-05-10T11:00:33.973Z,90.53
2023-05-10T11:01:34.010Z,89.74
2023-05-10T11:02:33.943Z,89.11
2023-05-10T11:03:33.910Z,88.90
2023-05-10T11:04:33.969Z,88.66
2023-05-10T11:05:33.861Z,89.49
2023-05-10T11:06:33.863Z,88.15
2023-05-10T11:07:33.838Z,88.80
2023-05-10T11:08:35.114Z,89.39
2023-05-10T11:09:34.116Z,90.65
2023-05-10T11:10:33.774Z,89.31
2023-05-10T11:11:33.748Z,89.25
2023-05-10T11:12:33.714Z,90.44
2023-05-10T11:13:33.685Z,88.25
2023-05-10T11:14:33.685Z,88.48
2023-05-10T11:15:33.640Z,88.95
2023-05-10T11:16:33.657Z,88.83
2023-05-10T11:17:33.617Z,87.75
2023-05-10T11:18:33.556Z,88.74
2023-05-10T11:19:33.513Z,87.29
2023-05-10T11:20:33.484Z,88.38
2023-05-10T11:21:33.486Z,87.83
2023-05-10T11:22:33.487Z,89.15
2023-05-10T11:23:33.433Z,87.68
2023-05-10T11:24:33.373Z,87.12
2023-05-10T11:25:33.345Z,86.80
2023-05-10T11:26:33.306Z,87.19
2023-05-10T11:27:33.276Z,88.68
2023-05-10T11:28:33.260Z,87.48
2023-05-10T11:29:33.225Z,87.81
2023-05-10T11:30:33.274Z,86.80
2023-05-10T11:31:33.193Z,88.16
2023-05-10T11:32:33.176Z,88.52
2023-05-10T11:33:33.717Z,88.01
2023-05-10T11:34:33.070Z,87.31
2023-05-10T11:35:33.046Z,88.86
2023-05-10T11:36:33.034Z,88.24
2023-05-10T11:37:32.977Z,86.17
2023-05-10T11:38:32.936Z,87.26
2023-05-10T11:39:32.921Z,87.19
2023-05-10T11:40:32.886Z,85.86
2023-05-10T11:41:32.883Z,84.48
2023-05-10T11:42:32.820Z,85.85
2023-05-10T11:43:32.813Z,87.78
2023-05-10T11:44:32.827Z,83.83
2023-05-10T11:45:32.733Z,86.85
2023-05-10T11:46:32.840Z,86.80
2023-05-10T11:47:32.717Z,84.65
2023-05-10T11:48:32.630Z,87.55
2023-05-10T11:49:32.593Z,86.78
2023-05-10T11:50:32.565Z,84.76
2023-05-10T11:51:32.534Z,85.38
2023-05-10T11:52:32.502Z,86.81
2023-05-10T11:53:32.478Z,84.94
2023-05-10T11:54:32.429Z,83.77
2023-05-10T11:55:32.419Z,82.41
2023-05-10T11:56:32.553Z,82.79
2023-05-10T11:57:32.347Z,83.54
2023-05-10T11:58:32.321Z,84.51
2023-05-10T11:59:32.284Z,83.27
2023-05-10T12:00:32.264Z,85.41
2023-05-10T12:01:32.236Z,82.34
2023-05-10T12:02:33.250Z,82.63
2023-05-10T12:03:32.400Z,83.34
2023-05-10T12:04:32.178Z,84.01
2023-05-10T12:05:32.087Z,85.03
2023-05-10T12:06:32.263Z,86.44
2023-05-10T12:07:32.041Z,84.83
2023-05-10T12:08:32.047Z,85.49
2023-05-10T12:09:43.072Z,83.94
2023-05-10T12:10:32.935Z,84.15
2023-05-10T12:11:31.924Z,84.44
2023-05-10T12:12:31.889Z,84.88
2023-05-10T12:13:31.863Z,83.17
2023-05-10T12:14:31.816Z,86.21
2023-05-10T12:15:31.786Z,83.47
2023-05-10T12:16:31.915Z,81.33
2023-05-10T12:17:31.819Z,83.89
2023-05-10T12:18:32.676Z,83.23
2023-05-10T12:19:31.700Z,83.17
2023-05-10T12:20:31.652Z,82.52
2023-05-10T12:21:31.680Z,83.10
2023-05-10T12:22:31.587Z,81.38
2023-05-10T12:23:31.562Z,83.14
2023-05-10T12:24:32.279Z,81.69
2023-05-10T12:25:31.488Z,80.51
2023-05-10T12:26:31.617Z,79.95
2023-05-10T12:27:31.429Z,81.92
2023-05-10T12:28:31.404Z,81.70
2023-05-10T12:29:31.378Z,82.29
2023-05-10T12:30:31.350Z,81.40
2023-05-10T12:31:31.353Z,79.86
2023-05-10T12:32:31.327Z,80.41
2023-05-10T12:33:31.310Z,80.65
2023-05-10T12:34:31.212Z,82.83
2023-05-10T12:35:31.178Z,79.09
2023-05-10T12:36:31.284Z,82.20
2023-05-10T12:37:31.123Z,79.43
2023-05-10T12:38:31.113Z,81.23
2023-05-10T12:39:31.106Z,80.77
2023-05-10T12:40:31.096Z,81.40
2023-05-10T12:41:31.075Z,81.21
2023-05-10T12:42:31.085Z,81.62
2023-05-10T12:43:31.051Z,80.91
2023-05-10T12:44:31.056Z,80.59
2023-05-10T12:45:31.750Z,80.36
2023-05-10T12:46:31.146Z,79.14
2023-05-10T12:47:31.046Z,80.07
2023-05-10T12:48:31.022Z,80.41
2023-05-10T12:49:31.014Z,79.15
2023-05-10T12:50:31.014Z,80.01
2023-05-10T12:51:30.994Z,81.83